Time;durP1;ratioP1;P1;durP2;ratioP2;P2;SDS_P1;SDS_P2;PMS_P1;PMS_P2;Temp;Humidity;BMP_temperature;BMP_pressure;BME280_temperature;BME280_humidity;BME280_pressure;Samples;Min_cycle;Max_cycle;Signal;HPM_P1;HPM_P2
2021/10/22 00:00:16;;;;;;;3.13;1.33;;;9.10;94.10;;;9.54;66.21;97582.63;4967077;28;20380;-48
2021/10/22 00:02:44;;;;;;;4.27;1.60;;;9.00;94.10;;;9.52;66.45;97580.13;4968071;28;20068;-49
2021/10/22 00:05:14;;;;;;;2.80;1.60;;;9.00;93.80;;;9.52;66.24;97579.28;4967709;28;20069;-49
2021/10/22 00:07:42;;;;;;;1.93;1.30;;;9.00;93.60;;;9.50;66.31;97574.16;4968260;28;20046;-46
2021/10/22 00:10:10;;;;;;;3.10;1.80;;;9.00;93.60;;;9.51;66.10;97577.63;4967223;28;20160;-46
2021/10/22 00:12:38;;;;;;;2.47;1.80;;;9.00;93.00;;;9.52;66.24;97582.78;4967822;28;20047;-52
2021/10/22 00:15:08;;;;;;;2.37;1.10;;;9.10;93.40;;;9.51;66.32;97583.78;4967057;28;20077;-48
2021/10/22 00:17:38;;;;;;;2.73;1.50;;;9.00;93.10;;;9.51;66.16;97585.59;4966084;28;20356;-46
2021/10/22 00:20:09;;;;;;;2.70;1.50;;;9.00;92.90;;;9.51;66.14;97594.41;4967250;28;20058;-46
2021/10/22 00:22:38;;;;;;;2.60;1.30;;;9.10;92.90;;;9.51;66.14;97602.38;4967575;28;20459;-47
2021/10/22 00:25:07;;;;;;;3.20;1.57;;;9.10;92.70;;;9.49;65.85;97611.50;4968209;28;20046;-50
2021/10/22 00:27:34;;;;;;;3.67;1.50;;;9.00;93.00;;;9.48;65.99;97615.13;4967064;28;20057;-47
2021/10/22 00:30:03;;;;;;;3.83;1.70;;;9.00;93.00;;;9.46;65.88;97613.47;4967007;28;20065;-47
2021/10/22 00:32:33;;;;;;;2.00;1.50;;;9.00;93.10;;;9.45;66.02;97621.59;4967141;28;20062;-47
2021/10/22 00:35:00;;;;;;;5.70;1.97;;;9.00;92.80;;;9.33;65.90;97625.50;4966935;28;20073;-49
2021/10/22 00:37:28;;;;;;;3.23;1.60;;;8.70;93.30;;;9.27;66.16;97624.28;4965732;28;20055;-48
2021/10/22 00:39:56;;;;;;;2.43;1.60;;;8.60;94.10;;;9.20;65.94;97628.53;4965744;28;20233;-47
2021/10/22 00:42:24;;;;;;;3.00;1.77;;;8.60;94.20;;;9.10;66.54;97623.31;4965086;28;20052;-48
2021/10/22 00:44:53;;;;;;;2.27;1.70;;;8.50;94.30;;;9.09;66.17;97623.44;4966787;28;20054;-49
2021/10/22 00:47:21;;;;;;;10.00;2.50;;;8.40;94.40;;;9.02;66.56;97625.91;4967274;28;20527;-48
2021/10/22 00:49:49;;;;;;;3.53;1.70;;;8.40;94.70;;;9.01;66.35;97625.03;4964961;28;20368;-47
2021/10/22 00:52:25;;;;;;;3.30;1.70;;;8.40;95.20;;;8.96;66.83;97621.19;4967396;28;20055;-46
2021/10/22 00:54:54;;;;;;;4.10;2.10;;;8.30;95.40;;;8.93;66.46;97619.66;4967009;28;20355;-50
2021/10/22 00:57:22;;;;;;;3.50;1.90;;;8.30;95.60;;;8.94;66.57;97631.13;4966230;28;20055;-48
2021/10/22 00:59:50;;;;;;;3.03;1.80;;;8.40;95.40;;;8.98;66.66;97632.50;4966427;28;20063;-48
2021/10/22 01:02:20;;;;;;;2.73;1.80;;;8.40;94.80;;;8.92;66.68;97631.28;4965171;28;20050;-50
2021/10/22 01:04:48;;;;;;;2.97;1.77;;;8.40;94.70;;;8.84;66.92;97624.06;4965669;28;20058;-46
2021/10/22 01:07:16;;;;;;;4.03;2.03;;;8.30;95.10;;;8.84;66.73;97620.56;4967177;28;20052;-50
2021/10/22 01:09:45;;;;;;;3.57;1.90;;;8.30;95.00;;;8.77;66.84;97632.78;4966443;28;20053;-47
2021/10/22 01:12:13;;;;;;;5.53;2.23;;;8.20;95.30;;;8.79;66.67;97618.38;4966044;28;20049;-48
2021/10/22 01:14:41;;;;;;;2.63;1.87;;;8.30;95.60;;;8.73;66.67;97626.09;4965836;28;20434;-47
2021/10/22 01:17:33;;;;;;;3.07;2.27;;;8.10;94.60;;;8.71;66.69;97622.78;4964302;28;20058;-45
2021/10/22 01:20:01;;;;;;;3.53;2.30;;;8.10;95.20;;;8.63;66.65;97627.00;4966660;28;20695;-47
2021/10/22 01:22:29;;;;;;;3.07;1.70;;;8.00;95.60;;;8.60;66.77;97623.81;4966009;28;20502;-49
2021/10/22 01:24:57;;;;;;;3.83;2.13;;;7.90;95.60;;;8.56;66.93;97625.91;4966908;28;20058;-46
2021/10/22 01:27:26;;;;;;;3.37;2.23;;;8.00;96.20;;;8.57;66.75;97630.25;4966778;28;20089;-46
2021/10/22 01:29:54;;;;;;;3.43;2.00;;;8.00;95.50;;;8.53;66.78;97626.22;4967292;28;20329;-47
2021/10/22 01:32:22;;;;;;;3.50;2.00;;;7.90;95.80;;;8.54;66.78;97630.53;4969424;28;20046;-48
2021/10/22 01:34:50;;;;;;;2.67;1.70;;;7.90;95.90;;;8.56;66.96;97620.59;4971792;28;20045;-48
2021/10/22 01:37:18;;;;;;;2.90;1.70;;;8.00;95.50;;;8.58;66.79;97631.09;4970966;28;20262;-46
2021/10/22 01:39:46;;;;;;;2.83;2.50;;;8.10;95.30;;;8.58;66.84;97623.13;4969531;28;20053;-47
2021/10/22 01:42:14;;;;;;;4.00;3.07;;;8.10;95.10;;;8.60;66.94;97634.41;4969319;28;20058;-48
2021/10/22 01:44:42;;;;;;;2.33;1.70;;;8.10;95.10;;;8.61;66.82;97638.75;4970413;28;20060;-48
2021/10/22 01:47:10;;;;;;;4.47;1.50;;;8.20;95.00;;;8.62;66.84;97632.44;4969240;28;20047;-47
2021/10/22 01:49:38;;;;;;;2.37;1.57;;;8.20;94.60;;;8.66;66.50;97637.28;4967776;28;20057;-47
2021/10/22 01:52:06;;;;;;;2.80;1.50;;;8.20;94.10;;;8.71;66.77;97630.72;4970770;28;20059;-47
2021/10/22 01:54:34;;;;;;;4.30;1.80;;;8.30;93.60;;;8.74;66.72;97641.03;4969577;28;20073;-48
2021/10/22 01:57:05;;;;;;;2.40;1.50;;;8.30;93.50;;;8.65;66.34;97634.81;4969730;28;20341;-48
2021/10/22 01:59:33;;;;;;;5.57;2.03;;;8.20;93.10;;;8.65;66.42;97634.81;4970048;28;20051;-47
2021/10/22 02:02:01;;;;;;;2.83;1.70;;;8.20;94.20;;;8.65;66.17;97632.16;4970563;28;20059;-46
2021/10/22 02:04:31;;;;;;;5.60;2.67;;;8.20;93.20;;;8.64;66.08;97638.44;4969607;28;20058;-46
2021/10/22 02:06:59;;;;;;;2.87;1.90;;;8.10;93.20;;;8.64;66.15;97636.63;4969461;28;20061;-48
2021/10/22 02:09:27;;;;;;;4.17;1.40;;;8.20;93.10;;;8.67;65.95;97641.63;4970437;28;20238;-47
2021/10/22 02:11:55;;;;;;;3.23;1.57;;;8.20;92.70;;;8.63;66.11;97637.63;4968671;28;20051;-46
2021/10/22 02:14:23;;;;;;;3.77;1.50;;;8.10;93.00;;;8.61;66.05;97636.94;4969293;28;20245;-46
2021/10/22 02:16:50;;;;;;;4.33;2.23;;;8.10;92.90;;;8.60;66.02;97637.91;4969950;28;20057;-51
2021/10/22 02:19:20;;;;;;;3.83;1.83;;;8.10;92.70;;;8.59;65.90;97635.41;4969361;28;20066;-46
2021/10/22 02:21:48;;;;;;;7.37;2.00;;;8.10;92.80;;;8.55;65.96;97639.31;4970435;28;20058;-46
2021/10/22 02:24:15;;;;;;;3.97;2.10;;;8.10;92.70;;;8.50;66.05;97642.44;4969572;28;20054;-45
2021/10/22 02:26:43;;;;;;;4.43;2.20;;;7.90;92.30;;;8.42;65.84;97637.88;4969469;28;20446;-47
2021/10/22 02:29:11;;;;;;;3.40;1.50;;;7.90;92.50;;;8.38;65.82;97639.13;4970636;28;20053;-49
2021/10/22 02:31:39;;;;;;;3.50;1.90;;;7.80;92.90;;;8.36;65.97;97643.75;4969874;28;20307;-47
2021/10/22 02:34:09;;;;;;;3.07;1.53;;;7.90;92.80;;;8.33;66.03;97649.31;4968901;28;20375;-48
2021/10/22 02:36:38;;;;;;;3.60;1.90;;;7.80;92.70;;;8.32;65.79;97644.16;4969647;28;20088;-47
2021/10/22 02:39:06;;;;;;;4.67;2.00;;;7.90;92.40;;;8.28;65.75;97648.94;4968542;28;20062;-47
2021/10/22 02:41:34;;;;;;;5.40;2.47;;;7.70;92.60;;;8.26;65.91;97643.78;4969861;28;20057;-46
2021/10/22 02:44:02;;;;;;;4.73;2.93;;;7.70;92.50;;;8.24;65.74;97647.56;4969090;28;20068;-47
2021/10/22 02:46:32;;;;;;;4.23;2.60;;;7.70;92.20;;;8.13;65.78;97648.59;4968916;28;20422;-47
2021/10/22 02:49:00;;;;;;;7.00;3.93;;;7.50;93.10;;;8.06;65.90;97644.84;4967251;28;20244;-48
2021/10/22 02:51:28;;;;;;;7.17;4.00;;;7.50;93.20;;;8.06;66.04;97643.03;4968193;28;20053;-50
2021/10/22 02:53:56;;;;;;;7.23;3.30;;;7.50;93.00;;;8.08;65.98;97642.88;4967561;28;20057;-51
2021/10/22 02:56:24;;;;;;;5.07;2.50;;;7.50;93.00;;;8.11;65.92;97649.72;4968927;28;20361;-48
2021/10/22 03:17:38;;;;;;;4.13;1.50;;;7.60;92.70;;;7.99;65.82;97676.41;4986112;28;20033;-48
2021/10/22 03:20:07;;;;;;;4.67;3.17;;;7.50;92.60;;;7.99;65.76;97676.41;4967888;28;20051;-47
2021/10/22 03:22:35;;;;;;;4.73;1.80;;;7.50;92.50;;;7.97;65.52;97678.38;4969200;28;20061;-47
2021/10/22 03:25:05;;;;;;;9.50;3.30;;;7.50;92.10;;;7.97;65.77;97675.72;4967326;28;20058;-48
2021/10/22 03:27:34;;;;;;;5.40;2.87;;;7.50;92.00;;;7.97;65.77;97675.72;4966815;28;20056;-51
2021/10/22 03:30:04;;;;;;;4.20;2.10;;;7.50;91.70;;;7.96;65.81;97675.84;4968079;28;20657;-47
2021/10/22 03:32:33;;;;;;;6.40;2.53;;;7.50;91.90;;;7.97;65.70;97675.72;4967229;28;20073;-48
2021/10/22 03:35:03;;;;;;;6.93;2.50;;;7.50;91.50;;;7.94;65.61;97678.63;4967961;28;20045;-49
2021/10/22 03:37:32;;;;;;;4.60;2.33;;;7.40;91.80;;;7.90;65.83;97679.91;4967917;28;20073;-52
2021/10/22 03:39:59;;;;;;;5.93;2.40;;;7.40;92.10;;;7.85;65.73;97687.44;4965539;28;20063;-51
2021/10/22 03:42:29;;;;;;;7.40;2.20;;;7.40;91.80;;;7.80;65.62;97695.00;4967489;28;20064;-51
2021/10/22 03:44:58;;;;;;;8.93;1.97;;;7.30;92.50;;;7.71;65.81;97701.97;4965847;28;20055;-47
2021/10/22 03:47:26;;;;;;;5.37;2.30;;;7.10;92.90;;;7.67;65.67;97701.44;4966388;28;20061;-48
2021/10/22 03:49:54;;;;;;;6.67;2.20;;;7.10;93.50;;;7.57;66.04;97708.56;4967128;28;20051;-49
2021/10/22 03:52:22;;;;;;;6.90;2.07;;;7.00;94.10;;;7.61;66.23;97707.28;4967106;28;20051;-48
2021/10/22 03:54:51;;;;;;;7.77;2.20;;;7.00;93.70;;;7.62;66.16;97706.34;4967737;28;20231;-48
2021/10/22 03:57:18;;;;;;;7.90;1.90;;;7.10;94.10;;;7.64;66.05;97704.38;4966997;28;20265;-49
2021/10/22 03:59:46;;;;;;;3.97;1.90;;;7.20;93.50;;;7.52;66.40;97702.84;4967186;28;20065;-47
2021/10/22 04:02:14;;;;;;;3.97;1.90;;;7.00;93.50;;;7.46;66.10;97706.03;4967506;28;20070;-52
2021/10/22 04:04:42;;;;;;;4.43;1.90;;;6.90;94.50;;;7.35;66.79;97714.13;4966839;28;20059;-49
2021/10/22 04:07:11;;;;;;;5.67;2.03;;;6.80;95.10;;;7.36;66.66;97714.00;4966586;28;20062;-49
2021/10/22 04:09:39;;;;;;;6.00;2.20;;;6.80;94.90;;;7.38;66.51;97706.75;4968047;28;20281;-50
2021/10/22 04:12:07;;;;;;;5.60;2.67;;;6.80;94.30;;;7.26;66.90;97702.56;4966820;28;20464;-52
2021/10/22 04:14:36;;;;;;;3.70;3.27;;;6.70;94.70;;;7.21;67.25;97708.28;4967263;28;20059;-49
2021/10/22 04:17:04;;;;;;;6.67;3.80;;;6.70;95.00;;;7.19;66.67;97712.91;4965899;28;20065;-49
2021/10/22 04:19:32;;;;;;;4.70;2.00;;;6.60;94.90;;;7.12;67.50;97722.34;4967941;28;20364;-48
2021/10/22 04:22:00;;;;;;;5.60;2.63;;;6.60;95.00;;;7.15;66.71;97715.94;4967386;28;20059;-48
2021/10/22 04:24:28;;;;;;;7.93;2.80;;;6.60;95.40;;;7.13;67.07;97715.25;4966906;28;20063;-51
2021/10/22 04:26:55;;;;;;;6.07;2.20;;;6.60;95.00;;;7.17;67.25;97719.28;4967504;28;20059;-49
2021/10/22 04:29:29;;;;;;;7.00;2.90;;;6.60;95.20;;;7.20;66.99;97717.19;4966098;28;20050;-48
2021/10/22 04:31:56;;;;;;;4.60;2.20;;;6.70;95.20;;;7.25;67.10;97722.06;4966352;28;20064;-51
2021/10/22 04:34:26;;;;;;;4.30;1.70;;;6.80;94.30;;;7.31;67.03;97724.19;4965995;28;20257;-51
2021/10/22 04:42:28;;;;;;;5.03;2.20;;;7.00;93.50;;;7.40;66.64;97714.56;4966356;28;20242;-49
2021/10/22 04:44:56;;;;;;;3.33;1.87;;;7.00;93.20;;;7.43;66.70;97719.59;4966526;28;20055;-51
2021/10/22 04:47:23;;;;;;;3.70;1.93;;;7.00;93.00;;;7.45;66.63;97718.47;4964543;28;20061;-50
2021/10/22 04:49:51;;;;;;;7.13;1.70;;;7.00;92.70;;;7.49;66.50;97721.66;4966581;28;20361;-50
2021/10/22 04:52:19;;;;;;;6.87;2.57;;;7.10;92.60;;;7.53;66.45;97719.59;4966977;28;20264;-48
2021/10/22 04:54:47;;;;;;;6.90;2.10;;;7.20;92.50;;;7.43;66.61;97725.72;4968413;28;20372;-50
2021/10/22 04:57:15;;;;;;;5.90;2.13;;;7.00;92.50;;;7.38;66.25;97717.34;4965605;28;20066;-48
2021/10/22 04:59:43;;;;;;;7.17;2.23;;;7.00;92.20;;;7.39;66.35;97719.03;4964653;28;20073;-47
2021/10/22 05:02:11;;;;;;;5.33;1.73;;;7.00;92.40;;;7.34;66.17;97715.13;4966444;28;20089;-50
2021/10/22 05:04:39;;;;;;;6.87;2.37;;;6.90;92.50;;;7.30;66.07;97719.84;4967779;28;20108;-48
2021/10/22 05:07:07;;;;;;;4.37;1.70;;;6.80;92.50;;;7.18;66.60;97727.09;4966057;28;20278;-51
2021/10/22 05:09:35;;;;;;;4.73;1.87;;;6.60;93.10;;;7.09;66.85;97719.97;4966133;28;20054;-48
2021/10/22 05:12:06;;;;;;;5.20;1.90;;;6.50;93.80;;;7.08;66.87;97721.78;4965190;28;20054;-51
2021/10/22 05:14:35;;;;;;;6.83;2.50;;;6.60;94.50;;;7.10;66.29;97721.66;4966365;28;20047;-49
2021/10/22 05:17:04;;;;;;;8.13;2.10;;;6.60;94.00;;;7.06;67.02;97714.97;4966384;28;20076;-49
2021/10/22 05:19:32;;;;;;;6.27;2.47;;;6.60;94.00;;;7.06;66.81;97718.44;4967061;28;20376;-50
2021/10/22 05:22:00;;;;;;;8.93;2.63;;;6.60;93.80;;;7.06;66.66;97718.44;4966317;28;20059;-50
2021/10/22 05:24:28;;;;;;;5.90;2.97;;;6.60;93.50;;;7.07;66.56;97717.44;4967062;28;20063;-48
2021/10/22 05:26:56;;;;;;;8.53;2.37;;;6.70;93.50;;;7.07;66.75;97719.28;4966361;28;20065;-51
2021/10/22 05:29:24;;;;;;;6.13;1.80;;;6.60;93.20;;;7.12;66.46;97727.66;4966285;28;20070;-49
2021/10/22 05:31:52;;;;;;;4.80;2.57;;;6.70;93.20;;;7.17;66.31;97721.94;4966093;28;20372;-48
2021/10/22 05:34:23;;;;;;;6.87;2.00;;;6.80;92.90;;;7.20;66.38;97727.78;4967519;28;20069;-52
2021/10/22 05:36:52;;;;;;;4.90;3.10;;;6.90;92.30;;;7.23;66.31;97730.19;4966741;28;20482;-48
2021/10/22 05:39:20;;;;;;;8.43;2.20;;;6.80;92.00;;;7.18;66.46;97728.91;4965958;28;20058;-49
2021/10/22 05:41:51;;;;;;;8.80;2.13;;;6.70;91.70;;;7.05;66.23;97727.34;4966828;28;20055;-49
2021/10/22 05:44:20;;;;;;;3.40;2.03;;;6.50;92.00;;;6.92;66.40;97732.09;4965270;28;20341;-47
2021/10/22 05:46:55;;;;;;;10.60;2.27;;;6.30;93.00;;;6.84;66.63;97729.25;4965365;28;20060;-48
2021/10/22 05:49:24;;;;;;;7.70;2.60;;;6.20;93.50;;;6.72;66.22;97733.00;4964354;28;20198;-49
2021/10/22 05:51:52;;;;;;;8.60;3.03;;;6.10;94.30;;;6.74;66.20;97723.94;4966958;28;20047;-51
2021/10/22 05:54:21;;;;;;;5.23;2.50;;;6.20;94.40;;;6.77;66.32;97725.50;4965054;28;20041;-47
2021/10/22 05:56:49;;;;;;;6.30;2.43;;;6.30;94.00;;;6.81;66.15;97729.53;4966930;28;20050;-48
2021/10/22 05:59:18;;;;;;;7.00;2.27;;;6.40;93.40;;;6.84;66.44;97719.53;4965074;28;20113;-48
2021/10/22 06:01:47;;;;;;;4.90;2.10;;;6.40;92.90;;;6.90;66.44;97732.22;4956147;28;20390;-48
2021/10/22 06:04:15;;;;;;;9.13;3.70;;;6.50;92.60;;;6.96;66.33;97730.84;4946694;28;20055;-51
2021/10/22 06:06:43;;;;;;;4.73;1.77;;;6.60;92.00;;;6.97;66.61;97731.66;4947152;28;20051;-48
2021/10/22 06:09:12;;;;;;;5.67;2.00;;;6.60;91.60;;;6.97;66.36;97726.38;4945323;28;20057;-50
2021/10/22 06:11:40;;;;;;;16.83;5.90;;;6.70;91.30;;;6.95;66.49;97726.50;4947170;29;20379;-49
2021/10/22 06:14:08;;;;;;;8.70;3.07;;;6.60;91.10;;;6.96;66.07;97730.84;4946681;28;20063;-50
2021/10/22 06:16:36;;;;;;;13.10;2.00;;;6.70;90.80;;;6.99;66.05;97740.31;4949768;28;20061;-47
2021/10/22 06:19:04;;;;;;;8.23;2.30;;;6.70;90.60;;;7.00;66.22;97740.16;4951489;28;20059;-48
2021/10/22 06:21:40;;;;;;;7.40;2.73;;;6.70;90.70;;;7.04;66.07;97751.31;4951400;29;20377;-50
2021/10/22 06:24:07;;;;;;;7.17;2.10;;;6.80;90.50;;;7.07;65.66;97751.88;4950549;29;20065;-52
2021/10/22 06:26:42;;;;;;;7.17;2.20;;;6.80;90.20;;;7.12;66.32;97756.78;4951056;28;20357;-48
2021/10/22 06:29:12;;;;;;;5.37;2.17;;;6.90;90.10;;;7.13;66.00;97760.25;4949939;29;20359;-51
2021/10/22 06:31:41;;;;;;;9.27;3.50;;;6.90;89.90;;;7.16;65.65;97765.28;4948717;29;20059;-49
2021/10/22 06:34:10;;;;;;;7.70;2.57;;;6.80;90.00;;;7.19;65.65;97776.44;4950071;29;20297;-48
2021/10/22 06:36:38;;;;;;;9.03;2.37;;;6.80;89.70;;;7.19;65.74;97775.59;4951136;29;20071;-50
2021/10/22 06:39:06;;;;;;;9.40;4.20;;;6.80;89.60;;;7.16;64.95;97784.66;4947127;29;20063;-49
2021/10/22 06:41:34;;;;;;;12.53;2.93;;;6.80;89.80;;;7.15;65.54;97796.19;4949366;28;20069;-48
2021/10/22 06:44:04;;;;;;;5.43;2.43;;;6.80;89.50;;;7.16;65.66;97797.88;4964880;28;20363;-47
2021/10/22 06:46:33;;;;;;;8.90;2.23;;;6.80;90.10;;;7.18;65.40;97800.41;4950790;29;20066;-47
2021/10/22 06:49:01;;;;;;;8.27;2.43;;;6.80;90.00;;;7.19;65.57;97797.63;4948619;28;20054;-52
2021/10/22 06:51:29;;;;;;;5.53;2.53;;;6.80;89.40;;;7.17;65.21;97807.47;4948042;29;20055;-49
2021/10/22 06:53:57;;;;;;;5.87;2.23;;;6.80;89.40;;;7.15;65.66;97809.44;4948000;29;20063;-51
2021/10/22 06:56:25;;;;;;;8.03;2.20;;;6.80;89.60;;;7.15;65.73;97798.84;4950868;28;20055;-48
2021/10/22 06:58:53;;;;;;;4.90;2.70;;;6.80;89.70;;;7.13;65.88;97797.31;4949054;28;20058;-49
2021/10/22 07:01:20;;;;;;;6.10;2.20;;;6.90;89.60;;;7.16;65.71;97811.13;4948071;29;20059;-46
2021/10/22 07:03:49;;;;;;;9.43;2.23;;;6.90;89.00;;;7.16;65.32;97823.53;4950345;29;20375;-49
2021/10/22 07:08:56;;;;;;;5.00;2.87;;;7.00;89.00;;;7.23;65.32;97833.44;4949524;28;20058;-47
2021/10/22 07:11:25;;;;;;;9.53;2.97;;;7.00;88.80;;;7.23;65.37;97838.75;4949793;28;20262;-50
2021/10/22 07:13:54;;;;;;;7.63;2.53;;;7.00;88.70;;;7.24;65.06;97843.06;4949472;28;20297;-50
2021/10/22 07:16:30;;;;;;;14.47;2.63;;;7.00;88.90;;;7.24;65.12;97843.06;4966417;28;20067;-50
2021/10/22 07:18:58;;;;;;;9.90;3.60;;;6.90;88.30;;;7.24;65.34;97851.00;4947526;28;20055;-49
2021/10/22 07:21:26;;;;;;;7.77;2.87;;;6.90;88.90;;;7.26;65.36;97859.63;4949341;29;20055;-52
2021/10/22 07:23:56;;;;;;;9.33;2.37;;;7.00;89.00;;;7.29;65.30;97863.84;4963085;28;20073;-49
2021/10/22 07:26:24;;;;;;;10.43;2.83;;;7.00;88.50;;;7.31;65.36;97869.84;4962966;28;20086;-51
2021/10/22 07:28:52;;;;;;;7.97;2.60;;;7.10;88.90;;;7.33;65.18;97873.19;4948558;28;20348;-50
2021/10/22 07:31:20;;;;;;;4.87;1.90;;;7.10;88.10;;;7.40;65.01;97878.78;4949623;28;20065;-49
2021/10/22 07:33:48;;;;;;;10.47;2.50;;;7.10;88.40;;;7.44;65.28;97888.13;4962110;28;20345;-55
2021/10/22 07:36:16;;;;;;;6.07;1.97;;;7.20;88.10;;;7.44;65.10;97881.03;4981067;28;20223;-53
2021/10/22 07:38:44;;;;;;;7.33;3.33;;;7.10;88.40;;;7.46;64.84;97886.19;4983706;28;20065;-52
2021/10/22 07:41:14;;;;;;;10.20;3.20;;;7.20;88.40;;;7.42;64.85;97890.91;4982722;28;20050;-51
2021/10/22 07:43:44;;;;;;;6.33;2.20;;;7.20;87.50;;;7.45;65.23;97895.13;4969845;28;20050;-52
2021/10/22 07:46:12;;;;;;;7.07;2.80;;;7.20;88.50;;;7.48;65.31;97898.34;4967041;28;20058;-54
2021/10/22 07:48:42;;;;;;;8.83;2.50;;;7.30;88.50;;;7.46;65.23;97902.06;4964568;28;20055;-55
2021/10/22 07:51:11;;;;;;;6.50;1.83;;;7.20;88.30;;;7.47;64.88;97901.94;4965941;28;20054;-54
2021/10/22 07:53:40;;;;;;;8.27;3.33;;;7.30;88.50;;;7.52;65.14;97908.66;4966678;28;20293;-55
2021/10/22 07:56:10;;;;;;;9.73;3.57;;;7.30;88.60;;;7.58;65.20;97911.59;4968431;28;20268;-52
2021/10/22 07:58:37;;;;;;;5.10;2.10;;;7.40;88.60;;;7.66;65.48;97913.59;4965898;28;20063;-49
2021/10/22 08:01:05;;;;;;;14.80;3.50;;;7.50;88.70;;;7.61;65.54;97918.44;4964351;28;20065;-51
2021/10/22 08:03:34;;;;;;;8.60;2.90;;;7.40;89.10;;;7.67;65.60;97920.53;4965595;28;20049;-54
2021/10/22 08:06:03;;;;;;;6.50;2.53;;;7.40;89.60;;;7.70;65.46;97930.88;4965907;28;20058;-52
2021/10/22 08:08:31;;;;;;;7.83;2.93;;;7.40;90.20;;;7.69;65.96;97929.19;4963354;28;20043;-55
2021/10/22 08:10:59;;;;;;;8.77;3.70;;;7.40;90.60;;;7.53;66.15;97944.78;4964032;28;20233;-53
2021/10/22 08:13:27;;;;;;;11.10;2.93;;;7.20;90.70;;;7.18;67.59;97944.22;4967972;28;20061;-54
2021/10/22 08:15:57;;;;;;;9.37;2.80;;;7.00;92.70;;;7.05;67.96;97940.94;4965874;28;20233;-53
2021/10/22 08:18:26;;;;;;;6.37;2.97;;;7.00;93.70;;;7.17;67.74;97952.28;4966037;28;20371;-54
2021/10/22 08:20:58;;;;;;;6.87;2.67;;;7.00;93.60;;;7.16;68.16;97946.16;4967424;28;20050;-52
2021/10/22 08:23:27;;;;;;;10.03;2.70;;;7.10;93.00;;;7.17;68.10;97953.13;4964863;28;20062;-54
2021/10/22 08:25:57;;;;;;;10.23;2.97;;;7.10;92.70;;;7.07;68.12;97957.53;4965514;28;20284;-48
2021/10/22 08:28:25;;;;;;;9.67;2.27;;;7.00;91.70;;;7.00;67.90;97961.66;4968135;28;20294;-56
2021/10/22 08:30:56;;;;;;;6.23;2.20;;;7.00;90.90;;;7.22;67.55;97956.22;4967415;28;20043;-50
2021/10/22 08:33:26;;;;;;;19.37;2.90;;;7.20;92.30;;;7.18;67.85;97954.81;4967550;28;20057;-54
2021/10/22 08:35:55;;;;;;;7.83;2.67;;;7.20;91.10;;;7.23;67.08;97954.41;4964702;28;20054;-49
2021/10/22 08:38:25;;;;;;;6.60;2.53;;;7.30;90.10;;;7.15;67.00;97959.53;4965407;28;20058;-49
2021/10/22 08:40:56;;;;;;;4.93;2.60;;;7.20;90.00;;;7.11;67.27;97961.59;4965063;28;20054;-53
2021/10/22 08:43:27;;;;;;;5.53;2.37;;;7.20;89.40;;;7.11;67.01;97961.59;4967201;28;20062;-50
2021/10/22 08:45:59;;;;;;;8.00;2.63;;;7.20;89.70;;;7.16;67.34;97956.75;4967101;28;20055;-50
2021/10/22 08:48:29;;;;;;;6.30;2.97;;;7.30;90.00;;;7.26;66.91;97962.09;4966203;28;20050;-51
2021/10/22 08:50:57;;;;;;;7.40;2.67;;;7.30;89.90;;;7.34;66.69;97966.72;4967129;28;20340;-54
2021/10/22 08:53:26;;;;;;;7.27;3.27;;;7.40;88.30;;;7.15;66.59;97963.00;4966604;28;20504;-54
2021/10/22 08:55:57;;;;;;;10.43;3.07;;;7.40;88.40;;;7.29;66.42;97973.28;4966194;28;20057;-53
2021/10/22 08:58:26;;;;;;;6.40;2.33;;;7.40;88.30;;;7.25;65.89;97968.34;4966808;28;20039;-53
2021/10/22 09:00:54;;;;;;;10.67;2.40;;;7.40;87.60;;;7.30;65.93;97966.16;4966835;28;20054;-51
2021/10/22 09:03:22;;;;;;;7.30;2.23;;;7.40;87.00;;;7.25;66.11;97969.22;4965823;28;20328;-51
2021/10/22 09:06:09;;;;;;;7.97;2.90;;;7.40;86.90;;;7.36;65.11;97962.13;4965652;28;20065;-52
2021/10/22 09:08:41;;;;;;;11.33;2.50;;;7.50;86.40;;;7.47;65.64;97964.69;4966412;28;20054;-54
2021/10/22 09:11:33;;;;;;;10.60;2.60;;;7.60;86.60;;;7.67;65.43;97968.25;4965110;28;20254;-52
2021/10/22 09:14:14;;;;;;;7.73;2.47;;;7.70;87.20;;;7.62;65.16;97965.19;4964476;28;20355;-53
2021/10/22 09:16:53;;;;;;;7.33;2.73;;;7.70;86.60;;;7.61;65.15;97963.47;4967929;28;20047;-51
2021/10/22 09:19:37;;;;;;;8.63;2.20;;;7.80;86.10;;;7.77;64.30;97970.91;4964292;28;20202;-53
2021/10/22 09:22:29;;;;;;;3.83;2.00;;;7.90;84.50;;;7.91;64.41;97975.84;4966001;28;20050;-53
2021/10/22 09:25:04;;;;;;;8.63;2.77;;;8.00;86.60;;;7.89;63.38;97970.69;4965229;28;20057;-51
2021/10/22 09:27:51;;;;;;;7.23;2.43;;;8.00;82.80;;;7.79;61.14;97967.19;4964286;28;20265;-54
2021/10/22 09:30:41;;;;;;;5.97;1.80;;;8.00;81.30;;;7.87;62.11;97966.47;4964423;28;20053;-50
2021/10/22 09:33:14;;;;;;;3.53;1.60;;;8.00;80.50;;;7.95;61.97;97973.75;4964719;28;20050;-54
2021/10/22 09:35:52;;;;;;;8.03;2.40;;;8.00;81.80;;;7.95;62.55;97961.34;4965553;28;20069;-51
2021/10/22 09:38:28;;;;;;;5.73;2.23;;;8.10;81.70;;;7.96;61.94;97970.97;4964901;28;20265;-54
2021/10/22 09:41:07;;;;;;;10.77;3.20;;;8.10;82.10;;;7.77;61.67;97971.75;4963782;28;20051;-53
2021/10/22 09:43:42;;;;;;;13.97;2.17;;;8.00;80.90;;;7.73;61.54;97966.88;4964992;28;20323;-51
2021/10/22 09:46:21;;;;;;;6.97;1.87;;;8.00;79.80;;;7.82;61.52;97960.75;4966777;28;20250;-51
2021/10/22 09:48:59;;;;;;;5.47;1.80;;;8.00;79.50;;;7.89;61.14;97965.38;4964358;28;20061;-54
2021/10/22 09:51:29;;;;;;;5.00;2.17;;;8.10;79.00;;;7.92;60.29;97961.59;4967818;28;20049;-53
2021/10/22 09:54:09;;;;;;;8.57;2.27;;;8.10;77.70;;;7.97;59.20;97959.38;4970935;28;20369;-53
2021/10/22 09:56:50;;;;;;;5.73;2.13;;;8.20;75.40;;;7.95;58.45;97941.94;4970173;28;20051;-54
2021/10/22 09:59:23;;;;;;;8.20;1.90;;;8.20;74.60;;;8.06;58.50;97947.97;4968675;28;20077;-52
2021/10/22 10:01:56;;;;;;;8.43;1.90;;;8.30;73.80;;;8.15;57.11;97940.97;4969023;28;20054;-49
2021/10/22 10:04:32;;;;;;;8.32;1.77;;;8.40;71.60;;;8.24;57.28;97941.97;4969051;28;20051;-49
2021/10/22 10:07:07;;;;;;;3.10;1.80;;;8.40;72.60;;;8.21;55.79;97950.19;4968988;28;20269;-51
2021/10/22 10:09:40;;;;;;;6.43;3.23;;;8.40;69.40;;;8.34;57.04;97948.13;4969507;28;20450;-52
2021/10/22 10:12:08;;;;;;;8.02;2.83;;;8.50;72.00;;;8.38;56.12;97952.16;4967962;28;20054;-53
2021/10/22 10:14:36;;;;;;;9.03;2.30;;;8.60;70.20;;;8.30;54.84;97944.06;4967783;28;20053;-47
2021/10/22 10:17:04;;;;;;;3.07;1.40;;;8.50;68.30;;;8.24;54.17;97947.28;4969491;28;20065;-52
2021/10/22 10:19:46;;;;;;;4.70;1.40;;;8.50;66.10;;;8.18;53.79;97950.47;4968113;28;20065;-51
2021/10/22 10:22:19;;;;;;;5.37;1.93;;;8.50;66.50;;;8.38;55.97;97941.53;4969592;28;20054;-49
2021/10/22 10:25:01;;;;;;;6.03;2.27;;;8.60;69.70;;;8.32;53.96;97952.72;4967206;28;20057;-50
2021/10/22 10:27:50;;;;;;;3.60;1.63;;;8.60;67.00;;;8.35;53.08;97957.72;4968902;28;20047;-46
2021/10/22 10:30:35;;;;;;;8.70;1.50;;;8.70;64.80;;;8.40;53.10;97954.69;4968637;28;20087;-48
2021/10/22 10:33:06;;;;;;;;;;;8.70;65.30;;;8.22;53.32;97954.50;4969663;28;20489;-49
2021/10/22 10:35:39;;;;;;;5.67;1.87;;;8.60;65.10;;;8.37;53.42;97963.72;4968982;28;19929;-51
2021/10/22 10:38:08;;;;;;;4.65;1.50;;;8.70;65.20;;;8.38;53.09;97953.97;4968171;28;20069;-49
2021/10/22 10:40:37;;;;;;;6.33;1.80;;;8.60;64.20;;;8.38;52.63;97956.63;4968490;28;20065;-49
2021/10/22 10:43:20;;;;;;;6.60;2.00;;;8.70;62.60;;;8.45;51.95;97977.19;4969235;28;20046;-50
2021/10/22 10:45:49;;;;;;;5.32;1.90;;;8.70;62.40;;;8.51;50.51;97965.19;4968206;28;20053;-50
2021/10/22 10:48:20;;;;;;;4.13;1.43;;;8.80;61.30;;;8.53;50.52;97959.72;4968486;28;20054;-49
2021/10/22 10:51:04;;;;;;;4.27;1.57;;;8.80;59.70;;;8.73;52.09;97960.56;4966927;28;20051;-49
2021/10/22 10:53:42;;;;;;;4.32;1.25;;;9.00;63.50;;;8.74;51.32;97960.38;4968610;28;20219;-51
2021/10/22 10:56:31;;;;;;;5.53;1.80;;;9.00;60.60;;;8.63;50.28;97977.31;4967603;28;20080;-51
2021/10/22 10:58:59;;;;;;;5.57;1.90;;;9.00;60.00;;;8.51;51.18;97966.97;4968304;28;20054;-48
2021/10/22 11:01:31;;;;;;;3.73;1.43;;;8.90;61.20;;;8.66;51.95;97969.06;4967153;28;20068;-52
2021/10/22 11:03:59;;;;;;;6.17;1.90;;;8.90;62.80;;;8.58;52.07;97965.44;4965527;28;20058;-49
2021/10/22 11:06:46;;;;;;;7.27;2.03;;;8.90;62.30;;;8.64;51.19;97976.31;4955037;28;20057;-49
2021/10/22 11:09:17;;;;;;;3.13;1.67;;;9.00;61.50;;;8.81;52.53;97966.00;4955385;28;20063;-48
2021/10/22 11:12:01;;;;;;;4.70;2.20;;;9.10;62.80;;;8.77;51.91;97972.56;4983447;28;20264;-47